DLH9JV EDDH-EDDF
Flight info
| Callsign | DLH9JV |
|---|---|
| Flight time | N/A |
| Altitude | 34000 |
| Route | AMLUH2G/33 AMLUH M852 DENIX DCT RIMET T157 KERAX KERAX5A |
| Aircraft | A320/M-SDE2E3FGIJ1LORWXYZ/HB1 |
Departure
| Time | 2026-05-04 18:25 |
|---|---|
| Airport | Hamburg Helmut Schmidt Airport (EDDH) |
Arrival
| Time | N/A |
|---|---|
| Airport | Frankfurt Main Airport (EDDF) |
| Time | Latitude | Longitude | Altitude | Speed | Heading |
|---|---|---|---|---|---|
| 2026-05-04 17:56 | 53.63168 | 10.00364 | 50 ft | 0 kts | 86° |
| 2026-05-04 17:56 | 53.63168 | 10.00368 | 50 ft | 0 kts | 86° |
| 2026-05-04 18:15 | 53.63168 | 10.00365 | 48 ft | 2 kts | 86° |
| 2026-05-04 18:15 | 53.63166 | 10.00325 | 48 ft | 2 kts | 86° |
| 2026-05-04 18:16 | 53.63166 | 10.00287 | 48 ft | 4 kts | 106° |
| 2026-05-04 18:16 | 53.63178 | 10.00254 | 44 ft | 4 kts | 161° |
| 2026-05-04 18:16 | 53.63186 | 10.00250 | 48 ft | 0 kts | 176° |
| 2026-05-04 18:21 | 53.63169 | 10.00253 | 48 ft | 3 kts | 176° |
| 2026-05-04 18:21 | 53.63130 | 10.00257 | 48 ft | 9 kts | 176° |
| 2026-05-04 18:21 | 53.63061 | 10.00253 | 48 ft | 10 kts | 199° |
| 2026-05-04 18:22 | 53.63003 | 10.00192 | 48 ft | 9 kts | 212° |
| 2026-05-04 18:22 | 53.62934 | 10.00117 | 48 ft | 13 kts | 212° |
| 2026-05-04 18:22 | 53.62868 | 10.00036 | 48 ft | 11 kts | 227° |
| 2026-05-04 18:22 | 53.62835 | 9.99930 | 44 ft | 11 kts | 246° |
| 2026-05-04 18:23 | 53.62813 | 9.99804 | 45 ft | 12 kts | 284° |
| 2026-05-04 18:23 | 53.62861 | 9.99749 | 44 ft | 0 kts | 332° |
| 2026-05-04 18:24 | 53.62872 | 9.99739 | 43 ft | 17 kts | 332° |
| 2026-05-04 18:24 | 53.63218 | 9.99442 | 47 ft | 91 kts | 332° |
| 2026-05-04 18:25 | 53.63958 | 9.98805 | 52 ft | 146 kts | 334° |
| 2026-05-04 18:25 | 53.64902 | 9.98029 | 619 ft | 149 kts | 334° |
| 2026-05-04 18:25 | 53.65830 | 9.97270 | 1311 ft | 147 kts | 333° |
| 2026-05-04 18:25 | 53.66755 | 9.96495 | 1897 ft | 156 kts | 333° |
| 2026-05-04 18:26 | 53.67794 | 9.95605 | 2225 ft | 178 kts | 332° |
| 2026-05-04 18:26 | 53.68987 | 9.94743 | 2602 ft | 198 kts | 348° |
| 2026-05-04 18:26 | 53.70432 | 9.94682 | 3027 ft | 216 kts | 0° |
| 2026-05-04 18:26 | 53.71965 | 9.94842 | 3718 ft | 225 kts | 8° |
| 2026-05-04 18:27 | 53.73338 | 9.96127 | 4543 ft | 236 kts | 49° |
| 2026-05-04 18:27 | 53.74039 | 9.98645 | 5343 ft | 241 kts | 75° |
| 2026-05-04 18:27 | 53.74330 | 10.01445 | 6145 ft | 245 kts | 93° |
| 2026-05-04 18:27 | 53.73995 | 10.04258 | 6862 ft | 250 kts | 114° |
| 2026-05-04 18:28 | 53.73129 | 10.06937 | 7253 ft | 272 kts | 126° |
| 2026-05-04 18:28 | 53.72110 | 10.09754 | 7811 ft | 288 kts | 123° |
| 2026-05-04 18:28 | 53.71097 | 10.12721 | 8640 ft | 294 kts | 122° |
| 2026-05-04 18:28 | 53.70077 | 10.15752 | 9550 ft | 298 kts | 125° |
| 2026-05-04 18:29 | 53.68790 | 10.18499 | 10313 ft | 303 kts | 138° |
| 2026-05-04 18:29 | 53.67081 | 10.20731 | 10606 ft | 321 kts | 154° |
| 2026-05-04 18:29 | 53.64990 | 10.22162 | 11168 ft | 328 kts | 168° |
| 2026-05-04 18:29 | 53.62760 | 10.23135 | 11928 ft | 333 kts | 169° |
| 2026-05-04 18:30 | 53.58232 | 10.25194 | 13483 ft | 342 kts | 168° |
| 2026-05-04 18:30 | 53.55919 | 10.26259 | 14183 ft | 346 kts | 168° |
| 2026-05-04 18:30 | 53.53588 | 10.27336 | 14855 ft | 349 kts | 168° |
| 2026-05-04 18:31 | 53.51229 | 10.28425 | 15539 ft | 353 kts | 168° |
| 2026-05-04 18:31 | 53.48850 | 10.29518 | 16199 ft | 357 kts | 168° |
| 2026-05-04 18:31 | 53.46426 | 10.30625 | 16876 ft | 360 kts | 168° |
| 2026-05-04 18:31 | 53.44008 | 10.31727 | 17530 ft | 364 kts | 168° |
| 2026-05-04 18:32 | 53.41554 | 10.32846 | 18189 ft | 368 kts | 168° |
| 2026-05-04 18:32 | 53.39065 | 10.33975 | 18755 ft | 371 kts | 168° |
| 2026-05-04 18:32 | 53.36563 | 10.35104 | 19343 ft | 374 kts | 169° |
| 2026-05-04 18:32 | 53.34046 | 10.36236 | 19951 ft | 376 kts | 169° |
| 2026-05-04 18:33 | 53.31513 | 10.37372 | 20557 ft | 377 kts | 169° |
| 2026-05-04 18:33 | 53.28976 | 10.38510 | 21158 ft | 379 kts | 169° |
| 2026-05-04 18:33 | 53.26429 | 10.39650 | 21767 ft | 380 kts | 169° |
| 2026-05-04 18:33 | 53.23868 | 10.40795 | 22344 ft | 381 kts | 169° |
| 2026-05-04 18:34 | 53.21303 | 10.41936 | 22906 ft | 383 kts | 170° |
| 2026-05-04 18:34 | 53.18723 | 10.43080 | 23461 ft | 386 kts | 170° |
| 2026-05-04 18:34 | 53.16116 | 10.44238 | 23926 ft | 388 kts | 170° |
| 2026-05-04 18:34 | 53.13488 | 10.45201 | 24356 ft | 386 kts | 178° |
| 2026-05-04 18:35 | 53.10825 | 10.45408 | 24789 ft | 382 kts | 187° |
| 2026-05-04 18:35 | 53.08174 | 10.45060 | 25217 ft | 383 kts | 189° |
| 2026-05-04 18:35 | 53.05516 | 10.44684 | 25656 ft | 384 kts | 189° |
| 2026-05-04 18:35 | 53.02846 | 10.44306 | 26086 ft | 386 kts | 189° |
| 2026-05-04 18:36 | 53.00161 | 10.43927 | 26520 ft | 388 kts | 189° |
| 2026-05-04 18:36 | 52.97463 | 10.43552 | 26938 ft | 390 kts | 189° |
| 2026-05-04 18:36 | 52.94755 | 10.43182 | 27340 ft | 392 kts | 189° |
| 2026-05-04 18:36 | 52.92001 | 10.42807 | 27477 ft | 401 kts | 189° |
| 2026-05-04 18:37 | 52.89189 | 10.42425 | 27610 ft | 409 kts | 189° |
| 2026-05-04 18:37 | 52.86358 | 10.42044 | 27749 ft | 417 kts | 189° |
| 2026-05-04 18:37 | 52.83443 | 10.41652 | 27881 ft | 424 kts | 189° |
| 2026-05-04 18:37 | 52.80442 | 10.41247 | 28016 ft | 430 kts | 189° |
| 2026-05-04 18:38 | 52.77441 | 10.40843 | 28161 ft | 436 kts | 189° |
| 2026-05-04 18:38 | 52.74414 | 10.40433 | 28427 ft | 438 kts | 189° |
| 2026-05-04 18:38 | 52.71373 | 10.40023 | 28802 ft | 437 kts | 189° |
| 2026-05-04 18:38 | 52.68433 | 10.39637 | 29618 ft | 421 kts | 189° |
| 2026-05-04 18:39 | 52.65561 | 10.39270 | 29891 ft | 410 kts | 189° |
| 2026-05-04 18:39 | 52.62752 | 10.38904 | 29953 ft | 397 kts | 189° |
| 2026-05-04 18:39 | 52.60060 | 10.38546 | 29955 ft | 380 kts | 190° |
| 2026-05-04 18:40 | 52.54694 | 10.37791 | 29945 ft | 398 kts | 190° |
| 2026-05-04 18:40 | 52.51859 | 10.37389 | 29964 ft | 409 kts | 189° |
| 2026-05-04 18:40 | 52.49007 | 10.36997 | 29970 ft | 413 kts | 189° |
| 2026-05-04 18:41 | 52.43298 | 10.36245 | 29966 ft | 415 kts | 189° |
| 2026-05-04 18:41 | 52.37527 | 10.35493 | 29972 ft | 416 kts | 189° |